createdAt,value
2023-05-19T00:02:06.015Z,102844.91
2023-05-19T00:04:33.554Z,102834.72
2023-05-19T00:07:03.165Z,102847.50
2023-05-19T00:09:29.942Z,102845.38
2023-05-19T00:11:56.817Z,102842.31
2023-05-19T00:14:23.615Z,102821.53
2023-05-19T00:16:50.403Z,102820.44
2023-05-19T00:19:17.105Z,102827.41
2023-05-19T00:21:43.645Z,102821.53
2023-05-19T00:24:10.136Z,102823.78
2023-05-19T00:26:37.098Z,102819.25
2023-05-19T00:29:03.594Z,102828.81
2023-05-19T00:31:31.590Z,102818.19
2023-05-19T00:33:58.121Z,102819.81
2023-05-19T00:36:24.967Z,102820.66
2023-05-19T00:38:51.926Z,102827.25
2023-05-19T00:41:18.459Z,102827.00
2023-05-19T00:43:45.023Z,102826.28
2023-05-19T00:46:11.524Z,102835.75
2023-05-19T00:48:37.983Z,102830.97
2023-05-19T00:51:06.383Z,102817.09
2023-05-19T00:53:33.803Z,102818.47
2023-05-19T00:56:01.105Z,102819.28
2023-05-19T00:58:30.603Z,102824.84
2023-05-19T01:01:03.208Z,102819.13
2023-05-19T01:03:31.592Z,102827.72
2023-05-19T01:06:01.549Z,102823.47
2023-05-19T01:08:28.347Z,102837.09
2023-05-19T01:10:54.817Z,102828.00
2023-05-19T01:13:21.443Z,102825.47
2023-05-19T01:16:19.324Z,102825.84
2023-05-19T01:19:04.143Z,102827.00
2023-05-19T01:21:36.282Z,102823.88
2023-05-19T01:24:24.514Z,102820.38
2023-05-19T01:27:17.305Z,102820.38
2023-05-19T01:29:55.931Z,102820.88
2023-05-19T01:32:23.832Z,102813.53
2023-05-19T01:34:51.170Z,102813.66
2023-05-19T01:37:17.982Z,102822.03
2023-05-19T01:39:44.919Z,102789.94
2023-05-19T01:42:12.068Z,102802.06
2023-05-19T01:44:38.866Z,102806.09
2023-05-19T01:47:05.674Z,102798.41
2023-05-19T01:49:32.189Z,102802.41
2023-05-19T01:51:58.657Z,102799.56
2023-05-19T01:54:25.329Z,102797.69
2023-05-19T01:56:57.772Z,102801.16
2023-05-19T01:59:41.022Z,102800.53
2023-05-19T02:02:32.199Z,102787.72
2023-05-19T02:05:03.198Z,102796.09
2023-05-19T02:07:42.902Z,102790.88
2023-05-19T02:10:19.677Z,102787.94
2023-05-19T02:12:46.389Z,102803.16
2023-05-19T02:15:24.775Z,102803.56
2023-05-19T02:17:54.378Z,102799.13
2023-05-19T02:20:22.246Z,102792.06
2023-05-19T02:22:49.126Z,102795.91
2023-05-19T02:25:15.615Z,102798.75
2023-05-19T02:27:42.521Z,102781.00
2023-05-19T02:30:09.700Z,102780.81
2023-05-19T02:32:36.567Z,102784.56
2023-05-19T02:35:04.053Z,102790.88
2023-05-19T02:37:31.155Z,102791.16
2023-05-19T02:39:57.624Z,102795.44
2023-05-19T02:42:24.116Z,102779.03
2023-05-19T02:44:50.647Z,102759.31
2023-05-19T02:47:17.069Z,102777.59
2023-05-19T02:49:44.096Z,102766.31
2023-05-19T02:52:12.008Z,102772.22
2023-05-19T02:54:38.574Z,102767.44
2023-05-19T02:57:05.405Z,102754.94
2023-05-19T02:59:32.184Z,102767.56
2023-05-19T03:02:02.252Z,102766.47
2023-05-19T03:04:29.781Z,102766.94
2023-05-19T03:06:57.248Z,102768.00
2023-05-19T03:09:23.652Z,102752.03
2023-05-19T03:11:50.135Z,102755.66
2023-05-19T03:14:16.581Z,102743.34
2023-05-19T03:16:43.159Z,102758.59
2023-05-19T03:19:10.368Z,102749.16
2023-05-19T03:21:36.845Z,102768.00
2023-05-19T03:24:03.508Z,102757.84
2023-05-19T03:26:29.943Z,102745.34
2023-05-19T03:28:56.346Z,102765.41
2023-05-19T03:31:22.817Z,102762.31
2023-05-19T03:33:49.279Z,102763.47
2023-05-19T03:36:15.836Z,102753.53
2023-05-19T03:38:42.256Z,102750.34
2023-05-19T03:41:08.684Z,102758.50
2023-05-19T03:43:35.302Z,102739.47
2023-05-19T03:46:02.158Z,102740.28
2023-05-19T03:48:28.769Z,102742.97
2023-05-19T03:50:55.632Z,102752.78
2023-05-19T03:53:22.196Z,102741.34
2023-05-19T08:26:19.977Z,102727.22
2023-05-19T12:35:37.512Z,102470.00
2023-05-19T13:15:01.693Z,102542.34
2023-05-19T13:17:28.187Z,102551.41
2023-05-19T13:19:54.701Z,102557.41
2023-05-19T13:22:21.311Z,102533.81
2023-05-19T13:24:48.225Z,102550.75
2023-05-19T13:27:14.796Z,102549.25
2023-05-19T13:29:41.259Z,102546.84
2023-05-19T13:32:08.523Z,102534.50
2023-05-19T13:34:35.035Z,102546.41
2023-05-19T13:37:01.541Z,102546.91
2023-05-19T13:39:28.114Z,102536.69
2023-05-19T13:41:54.636Z,102537.41
2023-05-19T13:44:21.128Z,102525.38
2023-05-19T13:46:49.822Z,102530.16
2023-05-19T13:49:17.165Z,102520.66
2023-05-19T13:51:44.127Z,102525.91
2023-05-19T13:54:11.351Z,102521.09
2023-05-19T13:56:38.002Z,102521.03
2023-05-19T13:59:04.801Z,102525.84
2023-05-19T14:01:31.427Z,102520.09
2023-05-19T14:03:58.104Z,102519.22
2023-05-19T14:06:24.838Z,102512.19
2023-05-19T14:08:51.356Z,102512.03
2023-05-19T14:11:19.701Z,102509.88
2023-05-19T14:13:52.544Z,102512.72
2023-05-19T14:16:20.442Z,102511.75
2023-05-19T14:18:47.092Z,102512.88
2023-05-19T14:21:13.878Z,102510.56
2023-05-19T14:23:40.435Z,102513.06
2023-05-19T14:26:06.945Z,102505.97
2023-05-19T14:28:33.654Z,102511.38
2023-05-19T14:31:00.257Z,102511.25
2023-05-19T14:33:26.897Z,102499.59
2023-05-19T14:35:53.502Z,102496.69
2023-05-19T14:38:19.951Z,102500.88
2023-05-19T14:40:48.350Z,102489.81
2023-05-19T14:43:14.890Z,102504.38
2023-05-19T14:45:44.587Z,102494.63
2023-05-19T14:48:11.995Z,102492.00
2023-05-19T14:50:39.159Z,102477.88
2023-05-19T14:53:05.771Z,102498.22
2023-05-19T14:55:32.284Z,102493.41
2023-05-19T14:57:58.871Z,102490.28
2023-05-19T15:00:28.241Z,102487.38
2023-05-19T15:02:54.805Z,102492.75
2023-05-19T15:05:22.919Z,102473.06
2023-05-19T15:07:49.484Z,102483.22
2023-05-19T15:10:16.657Z,102473.09
2023-05-19T15:12:43.208Z,102483.84
2023-05-19T15:15:10.080Z,102481.34
2023-05-19T15:17:36.578Z,102490.38
2023-05-19T15:20:03.172Z,102484.53
2023-05-19T15:22:29.681Z,102477.22
2023-05-19T15:24:56.148Z,102464.84
2023-05-19T15:27:22.882Z,102479.69
2023-05-19T15:29:49.797Z,102472.28
2023-05-19T15:32:16.361Z,102473.56
2023-05-19T15:34:42.916Z,102475.63
2023-05-19T15:37:09.366Z,102473.66
2023-05-19T15:39:36.047Z,102476.66
2023-05-19T15:42:02.529Z,102470.75
2023-05-19T15:44:29.960Z,102476.59
2023-05-19T15:46:56.467Z,102469.94
2023-05-19T15:49:24.991Z,102469.81
2023-05-19T15:51:51.549Z,102467.03
2023-05-19T15:54:18.230Z,102465.25
2023-05-19T15:56:44.726Z,102465.47
2023-05-19T15:59:11.160Z,102466.69
2023-05-19T16:01:37.706Z,102461.34
2023-05-19T16:04:04.613Z,102454.22
2023-05-19T16:06:31.186Z,102449.38
2023-05-19T16:08:57.782Z,102451.56
2023-05-19T16:11:24.233Z,102448.19
2023-05-19T16:13:50.745Z,102442.75
2023-05-19T16:16:17.279Z,102441.72
2023-05-19T16:18:44.209Z,102442.66
2023-05-19T16:21:10.757Z,102440.78
2023-05-19T16:23:37.240Z,102435.03
2023-05-19T16:26:03.738Z,102430.78
2023-05-19T16:28:30.198Z,102429.88
2023-05-19T16:30:58.643Z,102431.56
2023-05-19T16:33:26.287Z,102424.75
2023-05-19T16:35:56.253Z,102434.31
2023-05-19T16:38:22.762Z,102432.34
2023-05-19T16:40:49.194Z,102430.06
2023-05-19T16:43:15.727Z,102433.09
2023-05-19T16:45:42.320Z,102432.81
2023-05-19T16:48:08.921Z,102434.47
2023-05-19T16:50:35.920Z,102436.19
2023-05-19T16:53:02.668Z,102435.50
2023-05-19T16:55:29.136Z,102440.69
2023-05-19T16:57:55.681Z,102434.50
2023-05-19T17:00:22.292Z,102439.41
2023-05-19T17:02:49.034Z,102435.16
2023-05-19T17:05:15.630Z,102436.44
2023-05-19T17:07:42.155Z,102433.06
2023-05-19T17:10:09.213Z,102446.53
2023-05-19T17:12:36.432Z,102430.09
2023-05-19T17:15:03.027Z,102434.97
2023-05-19T17:17:29.527Z,102435.38
2023-05-19T17:19:56.590Z,102445.38
2023-05-19T17:22:23.031Z,102428.28
2023-05-19T17:24:49.546Z,102436.44
2023-05-19T17:27:16.091Z,102436.59
2023-05-19T17:29:42.598Z,102437.03
2023-05-19T17:32:09.240Z,102434.94
2023-05-19T17:34:35.862Z,102437.94
2023-05-19T17:37:02.413Z,102438.56
2023-05-19T17:39:28.874Z,102448.28
2023-05-19T17:41:55.430Z,102442.13
2023-05-19T17:44:21.942Z,102440.13
2023-05-19T17:46:48.505Z,102437.06
2023-05-19T17:49:15.354Z,102441.13
2023-05-19T17:51:42.082Z,102439.22
2023-05-19T17:54:08.843Z,102433.47
2023-05-19T17:56:40.816Z,102444.06
2023-05-19T17:59:07.452Z,102451.28
2023-05-19T18:01:34.254Z,102443.03
2023-05-19T18:04:01.532Z,102442.22
2023-05-19T18:06:28.718Z,102453.34
2023-05-19T18:08:58.170Z,102444.81
2023-05-19T18:11:24.683Z,102449.41
2023-05-19T18:13:51.143Z,102443.50
2023-05-19T18:16:17.629Z,102444.72
2023-05-19T18:18:46.895Z,102441.25
2023-05-19T18:21:17.606Z,102449.88
2023-05-19T18:23:44.766Z,102452.25
2023-05-19T18:26:14.727Z,102455.78
2023-05-19T18:28:41.966Z,102458.03
2023-05-19T18:31:09.320Z,102447.00
2023-05-19T18:33:35.948Z,102460.34
2023-05-19T18:36:02.519Z,102463.28
2023-05-19T18:38:28.979Z,102469.13
2023-05-19T18:40:56.706Z,102467.28
2023-05-19T18:43:23.241Z,102473.13
2023-05-19T18:45:49.786Z,102469.78
2023-05-19T18:48:16.481Z,102466.53
2023-05-19T18:50:44.546Z,102459.75
2023-05-19T18:53:11.796Z,102471.00
2023-05-19T18:55:38.617Z,102475.75
2023-05-19T18:58:06.179Z,102477.00
2023-05-19T19:00:33.245Z,102478.16
2023-05-19T19:03:00.111Z,102477.53
2023-05-19T19:05:26.679Z,102476.44
2023-05-19T19:07:53.304Z,102467.75
2023-05-19T19:10:19.886Z,102477.97
2023-05-19T19:12:46.545Z,102483.41
2023-05-19T19:15:13.100Z,102480.84
2023-05-19T19:17:42.460Z,102480.59
2023-05-19T19:20:09.403Z,102483.56
2023-05-19T19:22:36.305Z,102482.66
2023-05-19T19:25:03.170Z,102487.63
2023-05-19T19:27:31.264Z,102494.66
2023-05-19T19:29:58.592Z,102503.38
2023-05-19T19:32:25.363Z,102499.91
2023-05-19T19:34:53.279Z,102500.41
2023-05-19T19:37:19.867Z,102496.66
2023-05-19T19:39:46.696Z,102504.16
2023-05-19T19:42:13.279Z,102514.84
2023-05-19T19:44:39.853Z,102519.03
2023-05-19T19:47:06.469Z,102520.94
2023-05-19T19:49:33.457Z,102526.69
2023-05-19T19:52:00.061Z,102529.16
2023-05-19T19:54:26.673Z,102530.81
2023-05-19T19:56:53.138Z,102540.69
2023-05-19T19:59:19.796Z,102541.31
2023-05-19T20:01:46.462Z,102536.91
2023-05-19T20:04:13.169Z,102552.69
2023-05-19T20:06:39.856Z,102546.31
2023-05-19T20:09:06.948Z,102543.00
2023-05-19T20:11:33.505Z,102532.72
2023-05-19T20:14:00.023Z,102553.84
2023-05-19T20:16:26.844Z,102551.56
2023-05-19T20:18:53.469Z,102546.63
2023-05-19T20:21:20.102Z,102550.75
2023-05-19T20:23:46.600Z,102557.25
2023-05-19T20:26:13.722Z,102558.09
2023-05-19T20:28:40.625Z,102554.66
2023-05-19T20:31:07.314Z,102558.59
2023-05-19T20:33:33.947Z,102560.84
2023-05-19T20:36:00.450Z,102564.78
2023-05-19T20:38:27.306Z,102569.81
2023-05-19T20:40:54.399Z,102572.75
2023-05-19T20:43:21.187Z,102569.78
2023-05-19T20:45:47.778Z,102559.44
2023-05-19T20:48:15.920Z,102578.59
2023-05-19T20:50:42.731Z,102573.84
2023-05-19T20:53:09.211Z,102577.22
2023-05-19T20:55:38.203Z,102583.78
2023-05-19T20:58:04.813Z,102583.63
2023-05-19T21:00:31.357Z,102582.47
2023-05-19T21:02:58.101Z,102575.41
2023-05-19T21:05:24.907Z,102579.97
2023-05-19T21:07:51.410Z,102580.13
2023-05-19T21:10:17.957Z,102577.47
2023-05-19T21:12:44.484Z,102581.25
2023-05-19T21:15:11.402Z,102586.16
2023-05-19T21:17:37.943Z,102590.97
2023-05-19T21:20:05.018Z,102588.63
2023-05-19T21:22:31.564Z,102585.63
2023-05-19T21:24:58.216Z,102590.84
2023-05-19T21:27:24.735Z,102590.69
2023-05-19T21:29:53.051Z,102591.91
2023-05-19T21:32:20.341Z,102594.47
2023-05-19T21:34:47.005Z,102589.25
2023-05-19T21:37:13.512Z,102595.91
2023-05-19T21:39:40.020Z,102593.50
2023-05-19T21:42:06.490Z,102597.53
2023-05-19T21:44:32.977Z,102595.69
2023-05-19T21:46:59.581Z,102600.81
2023-05-19T21:49:26.139Z,102602.63
2023-05-19T21:51:52.589Z,102606.44
2023-05-19T21:54:19.028Z,102615.06
2023-05-19T21:56:45.541Z,102608.16
2023-05-19T21:59:12.220Z,102613.06
2023-05-19T22:01:38.949Z,102612.81
2023-05-19T22:06:31.955Z,102609.91
2023-05-19T22:09:01.119Z,102617.53
2023-05-19T22:11:27.670Z,102606.94
2023-05-19T22:13:57.072Z,102602.88
2023-05-19T22:16:23.632Z,102606.78
2023-05-19T22:18:50.227Z,102607.06
2023-05-19T22:21:16.909Z,102601.09
2023-05-19T22:23:43.892Z,102601.25
2023-05-19T22:26:10.850Z,102598.78
2023-05-19T22:28:37.350Z,102605.97
2023-05-19T22:31:04.079Z,102605.19
2023-05-19T22:33:30.909Z,102601.91
2023-05-19T22:35:57.469Z,102569.56
2023-05-19T22:38:23.997Z,102606.16
2023-05-19T22:40:50.651Z,102604.56
2023-05-19T22:43:17.093Z,102610.25
2023-05-19T22:45:43.615Z,102607.25
2023-05-19T22:48:10.089Z,102612.34
2023-05-19T22:50:36.745Z,102604.25
2023-05-19T22:53:03.351Z,102598.81
2023-05-19T22:55:29.835Z,102604.19
2023-05-19T22:57:56.368Z,102600.66
2023-05-19T23:00:22.900Z,102604.50
2023-05-19T23:02:49.468Z,102579.00
2023-05-19T23:05:16.294Z,102597.22
2023-05-19T23:07:42.913Z,102604.31
2023-05-19T23:10:09.614Z,102604.09
2023-05-19T23:12:36.170Z,102604.91
2023-05-19T23:15:03.013Z,102606.44
2023-05-19T23:17:29.633Z,102600.41
2023-05-19T23:19:56.153Z,102598.47
2023-05-19T23:22:22.694Z,102606.34
2023-05-19T23:24:49.321Z,102600.22
2023-05-19T23:27:15.795Z,102612.13
2023-05-19T23:29:42.292Z,102604.44
2023-05-19T23:32:08.796Z,102597.34
2023-05-19T23:34:35.413Z,102591.34
2023-05-19T23:37:01.913Z,102601.34
2023-05-19T23:39:28.448Z,102603.81
2023-05-19T23:41:54.865Z,102595.72
2023-05-19T23:44:21.309Z,102600.00
2023-05-19T23:46:47.836Z,102604.50
2023-05-19T23:49:14.633Z,102593.66
2023-05-19T23:51:41.347Z,102603.41
2023-05-19T23:54:07.821Z,102598.63
2023-05-19T23:56:34.383Z,102598.09
2023-05-19T23:59:00.996Z,102597.94
